createdAt,value
2023-01-04T09:02:38.659Z,3.60
2023-01-04T09:08:15.652Z,3.70
2023-01-04T09:10:44.548Z,3.60
2023-01-04T09:13:13.385Z,3.50
2023-01-04T09:15:42.427Z,3.40
2023-01-04T09:18:33.050Z,3.30
2023-01-04T09:21:08.546Z,3.30
2023-01-04T09:23:37.567Z,3.30
2023-01-04T09:26:10.942Z,3.30
2023-01-04T09:28:40.113Z,3.30
2023-01-04T09:31:09.245Z,3.30
2023-01-04T09:34:12.204Z,3.40
2023-01-04T09:36:27.517Z,3.40
2023-01-04T09:38:56.923Z,3.40
2023-01-04T09:41:28.381Z,3.50
2023-01-04T09:43:59.612Z,3.50
2023-01-04T09:46:34.110Z,3.60
2023-01-04T09:49:15.722Z,3.60
2023-01-04T09:51:54.559Z,3.60
2023-01-04T09:54:25.683Z,3.60
2023-01-04T09:56:58.414Z,3.60
2023-01-04T09:59:32.110Z,3.60
2023-01-04T10:02:05.369Z,3.60
2023-01-04T10:04:45.545Z,3.70
2023-01-04T10:07:22.817Z,3.70
2023-01-04T10:09:51.243Z,3.80
2023-01-04T10:12:34.769Z,3.80
2023-01-04T10:15:17.770Z,3.90
2023-01-04T10:21:30.002Z,4.00
2023-01-04T10:24:34.178Z,4.10
2023-01-04T10:27:09.099Z,4.10
2023-01-04T10:30:01.849Z,4.10
2023-01-04T10:32:41.789Z,4.20
2023-01-04T10:35:21.662Z,4.20
2023-01-04T10:37:55.488Z,4.20
2023-01-04T10:40:23.889Z,4.20
2023-01-04T10:43:01.919Z,4.20
2023-01-04T10:45:38.713Z,4.30
2023-01-04T10:48:14.082Z,4.40
2023-01-04T10:50:49.745Z,4.40
2023-01-04T10:53:23.580Z,4.50
2023-01-04T10:56:26.502Z,4.60
2023-01-04T10:58:51.247Z,4.60
2023-01-04T11:01:23.813Z,4.60
2023-01-04T11:03:57.035Z,4.50
2023-01-04T11:06:28.852Z,4.40
2023-01-04T11:09:05.930Z,4.30
2023-01-04T11:11:39.708Z,4.30
2023-01-04T11:14:08.389Z,4.30
2023-01-04T11:16:38.001Z,4.30
2023-01-04T11:19:08.850Z,4.30
2023-01-04T11:21:43.807Z,4.20
2023-01-04T11:24:31.463Z,4.30
2023-01-04T11:27:07.619Z,4.40
2023-01-04T11:29:41.818Z,4.30
2023-01-04T11:32:18.313Z,4.30
2023-01-04T11:34:53.603Z,4.20
2023-01-04T11:37:33.532Z,4.20
2023-01-04T11:40:21.956Z,4.20
2023-01-04T11:42:52.652Z,4.20
2023-01-04T11:45:25.304Z,4.20
2023-01-04T11:47:55.988Z,4.20
2023-01-04T11:50:42.615Z,4.20
2023-01-04T11:53:39.601Z,4.20
2023-01-04T11:56:21.772Z,4.20
2023-01-04T11:59:20.652Z,4.20
2023-01-04T12:02:11.338Z,4.20
2023-01-04T12:04:39.868Z,4.30
2023-01-04T12:07:18.379Z,4.30
2023-01-04T12:09:46.787Z,4.30
2023-01-04T12:12:16.532Z,4.30
2023-01-04T12:14:50.027Z,4.30
2023-01-04T12:17:24.394Z,4.30
2023-01-04T12:19:55.127Z,4.30
2023-01-04T12:22:32.546Z,4.30
2023-01-04T12:25:02.656Z,4.40
2023-01-04T12:27:32.593Z,4.40
2023-01-04T12:30:02.229Z,4.40
2023-01-04T12:32:54.758Z,4.40
2023-01-04T12:36:04.027Z,4.40
2023-01-04T12:38:59.557Z,4.40
2023-01-04T12:42:18.006Z,4.40
2023-01-04T12:45:19.270Z,4.40
2023-01-04T12:48:06.769Z,4.40
2023-01-04T12:51:37.418Z,4.40
2023-01-04T12:54:34.186Z,4.40
2023-01-04T12:57:33.522Z,4.30
2023-01-04T13:00:08.545Z,4.30
2023-01-04T13:02:44.130Z,4.30
2023-01-04T13:05:55.447Z,4.30
2023-01-04T13:08:42.221Z,4.30
2023-01-04T13:11:37.858Z,4.30
2023-01-04T13:14:13.745Z,4.30
2023-01-04T13:16:50.752Z,4.30
2023-01-04T13:19:25.209Z,4.30
2023-01-04T13:21:58.161Z,4.30
2023-01-04T13:24:31.499Z,4.40
2023-01-04T13:27:09.309Z,4.40
2023-01-04T13:30:01.994Z,4.40
2023-01-04T13:33:28.575Z,4.40
2023-01-04T13:36:13.652Z,4.40
2023-01-04T13:38:42.919Z,4.40
2023-01-04T13:41:22.266Z,4.40
2023-01-04T13:44:11.390Z,4.40
2023-01-04T13:47:01.209Z,4.50
2023-01-04T13:49:51.405Z,4.50
2023-01-04T13:52:50.491Z,4.50
2023-01-04T13:55:25.729Z,4.40
2023-01-04T13:58:02.771Z,4.40
2023-01-04T14:00:42.464Z,4.50
2023-01-04T14:10:59.633Z,4.60
2023-01-04T14:13:31.581Z,4.60
2023-01-04T14:16:21.116Z,4.60
2023-01-04T14:19:59.935Z,4.60
2023-01-04T14:26:12.757Z,4.70
2023-01-04T14:29:42.944Z,4.80
2023-01-04T14:35:36.053Z,4.80
2023-01-04T14:50:21.930Z,4.80
2023-01-04T14:54:00.024Z,4.80
2023-01-04T14:56:36.238Z,4.70
2023-01-04T14:59:14.812Z,4.70
2023-01-04T15:01:45.586Z,4.70
2023-01-04T15:04:20.284Z,4.80
2023-01-04T15:06:51.257Z,4.70
2023-01-04T15:09:19.659Z,4.70
2023-01-04T15:11:56.006Z,4.80
2023-01-04T15:14:25.017Z,4.80
2023-01-04T15:16:53.653Z,4.80
2023-01-04T15:19:22.307Z,4.70
2023-01-04T15:21:54.355Z,4.70
2023-01-04T15:24:26.048Z,4.70
2023-01-04T15:26:56.462Z,4.80
2023-01-04T15:29:25.362Z,4.70
2023-01-04T15:31:54.125Z,4.70
2023-01-04T15:34:31.757Z,4.80
2023-01-04T15:37:03.242Z,4.80
2023-01-04T15:39:31.756Z,4.80
2023-01-04T15:42:19.697Z,4.80
2023-01-04T15:44:51.499Z,4.80
2023-01-04T15:47:23.191Z,4.80
2023-01-04T15:49:51.836Z,4.80
2023-01-04T15:52:33.139Z,4.80
2023-01-04T15:55:05.044Z,4.90
2023-01-04T15:57:41.669Z,4.90
2023-01-04T16:00:18.141Z,4.90
2023-01-04T16:02:46.625Z,5.00
2023-01-04T16:05:16.333Z,5.00
2023-01-04T16:07:48.277Z,5.00
2023-01-04T16:10:17.826Z,5.10
2023-01-04T16:12:54.778Z,5.00
2023-01-04T16:15:30.173Z,5.00
2023-01-04T16:18:04.163Z,5.00
2023-01-04T16:20:35.838Z,5.00
2023-01-04T16:23:04.550Z,5.00
2023-01-04T16:25:33.512Z,5.10
2023-01-04T16:28:09.592Z,5.10
2023-01-04T16:30:38.199Z,5.10
2023-01-04T16:33:09.858Z,5.10
2023-01-04T16:35:41.446Z,5.10
2023-01-04T16:38:16.670Z,5.10
2023-01-04T16:41:05.015Z,5.20
2023-01-04T16:43:48.198Z,5.20
2023-01-04T16:46:31.908Z,5.20
2023-01-04T16:49:03.042Z,5.20
2023-01-04T16:52:14.891Z,5.20
2023-01-04T16:55:04.858Z,5.30
2023-01-04T16:57:42.429Z,5.30
2023-01-04T17:00:14.658Z,5.30
2023-01-04T17:02:49.746Z,5.30
2023-01-04T17:05:19.202Z,5.20
2023-01-04T17:10:39.580Z,5.30
2023-01-04T17:13:11.091Z,5.30
2023-01-04T17:15:43.419Z,5.30
2023-01-04T17:18:31.257Z,5.40
2023-01-04T17:21:33.037Z,5.40
2023-01-04T17:24:09.746Z,5.50
2023-01-04T17:26:49.036Z,5.50
2023-01-04T17:29:21.068Z,5.50
2023-01-04T17:31:51.845Z,5.50
2023-01-04T17:34:23.199Z,5.50
2023-01-04T17:36:52.141Z,5.50
2023-01-04T17:39:21.960Z,5.60
2023-01-04T17:41:51.200Z,5.50
2023-01-04T17:44:19.653Z,5.50
2023-01-04T17:46:50.542Z,5.50
2023-01-04T17:49:25.330Z,5.50
2023-01-04T17:51:57.330Z,5.50
2023-01-04T17:54:27.094Z,5.60
2023-01-04T17:56:58.606Z,5.60
2023-01-04T17:59:27.080Z,5.60
2023-01-04T18:01:55.744Z,5.60
2023-01-04T18:04:25.735Z,5.60
2023-01-04T18:06:54.484Z,5.70
2023-01-04T18:09:25.031Z,5.70
2023-01-04T18:11:53.375Z,5.70
2023-01-04T18:14:22.485Z,5.70
2023-01-04T18:16:57.910Z,5.70
2023-01-04T18:19:30.404Z,5.80
2023-01-04T18:21:59.841Z,5.70
2023-01-04T18:24:37.395Z,5.70
2023-01-04T18:27:24.548Z,5.60
2023-01-04T18:29:54.900Z,5.60
2023-01-04T18:32:24.025Z,5.60
2023-01-04T18:34:54.000Z,5.60
2023-01-04T18:37:28.802Z,5.60
2023-01-04T18:40:03.974Z,5.70
2023-01-04T18:42:38.440Z,5.80
2023-01-04T18:45:08.175Z,5.80
2023-01-04T18:47:47.675Z,5.80
2023-01-04T18:50:21.535Z,5.80
2023-01-04T18:52:49.908Z,5.80
2023-01-04T18:55:27.513Z,5.80
2023-01-04T18:57:55.925Z,5.70
2023-01-04T19:00:29.900Z,5.80
2023-01-04T19:02:59.050Z,5.80
2023-01-04T19:05:31.546Z,5.80
2023-01-04T19:07:59.832Z,5.80
2023-01-04T19:10:28.214Z,5.80
2023-01-04T19:12:56.789Z,5.80
2023-01-04T19:15:25.764Z,5.90
2023-01-04T19:17:54.311Z,6.00
2023-01-04T19:20:25.930Z,6.00
2023-01-04T19:22:56.353Z,6.00
2023-01-04T19:25:28.516Z,6.00
2023-01-04T19:27:57.199Z,6.00
2023-01-04T19:30:25.794Z,6.00
2023-01-04T19:32:56.902Z,6.00
2023-01-04T19:35:26.003Z,6.10
2023-01-04T19:37:56.254Z,6.10
2023-01-04T19:40:24.878Z,6.10
2023-01-04T19:42:53.464Z,6.10
2023-01-04T19:45:24.680Z,6.20
2023-01-04T19:47:52.985Z,6.20
2023-01-04T19:50:21.796Z,6.20
2023-01-04T19:52:50.249Z,6.20
2023-01-04T19:55:20.268Z,6.20
2023-01-04T19:57:51.691Z,6.30
2023-01-04T20:00:20.459Z,6.30
2023-01-04T20:02:49.582Z,6.30
2023-01-04T20:05:18.261Z,6.40
2023-01-04T20:07:48.667Z,6.40
2023-01-04T20:10:17.023Z,6.40
2023-01-04T20:12:46.938Z,6.40
2023-01-04T20:15:15.420Z,6.40
2023-01-04T20:17:43.847Z,6.50
2023-01-04T20:20:12.346Z,6.50
2023-01-04T20:22:40.585Z,6.50
2023-01-04T20:25:09.616Z,6.50
2023-01-04T20:27:37.989Z,6.50
2023-01-04T20:30:09.310Z,6.50
2023-01-04T20:32:37.983Z,6.50
2023-01-04T20:35:06.762Z,6.50
2023-01-04T20:37:35.289Z,6.50
2023-01-04T20:40:03.890Z,6.50
2023-01-04T20:42:46.020Z,6.40
2023-01-04T20:45:15.716Z,6.40
2023-01-04T20:47:44.045Z,6.50
2023-01-04T20:50:13.660Z,6.60
2023-01-04T20:52:42.018Z,6.60
2023-01-04T20:55:17.384Z,6.70
2023-01-04T20:57:46.065Z,6.70
2023-01-04T21:00:18.458Z,6.80
2023-01-04T21:02:50.244Z,6.80
2023-01-04T21:05:19.883Z,6.80
2023-01-04T21:07:48.378Z,6.90
2023-01-04T21:10:18.570Z,6.90
2023-01-04T21:12:47.622Z,7.00
2023-01-04T21:15:17.922Z,7.00
2023-01-04T21:17:47.818Z,7.00
2023-01-04T21:20:16.252Z,7.00
2023-01-04T21:22:44.596Z,7.00
2023-01-04T21:25:12.937Z,7.00
2023-01-04T21:27:41.189Z,7.00
2023-01-04T21:30:10.525Z,6.90
2023-01-04T21:32:40.368Z,7.00
2023-01-04T21:35:09.828Z,7.00
2023-01-04T21:37:38.097Z,7.00
2023-01-04T21:40:07.476Z,7.00
2023-01-04T21:42:39.385Z,7.00
2023-01-04T21:45:08.922Z,6.90
2023-01-04T21:47:37.989Z,6.90
2023-01-04T21:50:14.899Z,6.90
2023-01-04T21:52:45.442Z,6.90
2023-01-04T21:55:13.765Z,6.90
2023-01-04T21:57:42.050Z,6.90
2023-01-04T22:00:12.719Z,6.90
2023-01-04T22:02:42.968Z,6.90
2023-01-04T22:05:12.895Z,6.90
2023-01-04T22:07:41.120Z,6.90
2023-01-04T22:10:10.112Z,6.90
2023-01-04T22:12:38.612Z,6.90
2023-01-04T22:15:08.107Z,7.00
2023-01-04T22:17:36.480Z,7.00
2023-01-04T22:20:04.997Z,7.10
2023-01-04T22:22:34.703Z,7.10
2023-01-04T22:25:02.992Z,7.20
2023-01-04T22:27:31.276Z,7.40
2023-01-04T22:30:02.187Z,7.50
2023-01-04T22:32:30.569Z,7.50
2023-01-04T22:34:58.780Z,7.50
2023-01-04T22:37:27.084Z,7.60
2023-01-04T22:39:56.705Z,7.60
2023-01-04T22:42:24.945Z,7.60
2023-01-04T22:44:53.215Z,7.50
2023-01-04T22:47:21.517Z,7.60
2023-01-04T22:49:49.849Z,7.60
2023-01-04T22:52:18.236Z,7.60
2023-01-04T22:54:48.450Z,7.70
2023-01-04T22:57:18.197Z,7.70
2023-01-04T22:59:46.605Z,7.70
2023-01-04T23:02:15.051Z,7.80
2023-01-04T23:04:43.531Z,7.80
2023-01-04T23:07:12.023Z,8.00
2023-01-04T23:09:40.377Z,8.00
2023-01-04T23:12:08.890Z,8.10
2023-01-04T23:14:38.770Z,8.20
2023-01-04T23:17:07.140Z,8.20
2023-01-04T23:19:36.217Z,8.20
2023-01-04T23:22:04.993Z,8.30
2023-01-04T23:24:34.839Z,8.50
2023-01-04T23:27:03.258Z,8.50
2023-01-04T23:29:31.592Z,8.50
2023-01-04T23:32:01.564Z,8.40
2023-01-04T23:34:30.419Z,8.40
2023-01-04T23:36:58.825Z,8.50
2023-01-04T23:39:27.144Z,8.50
2023-01-04T23:41:55.505Z,8.50
2023-01-04T23:44:25.304Z,8.50
2023-01-04T23:46:55.606Z,8.60
2023-01-04T23:49:26.937Z,8.50
2023-01-04T23:51:55.749Z,8.70
2023-01-04T23:54:25.048Z,8.70
2023-01-04T23:56:54.166Z,8.70
2023-01-04T23:59:23.250Z,8.70
